createdAt,value
2024-01-15T00:00:18.652Z,1.40
2024-01-15T00:02:46.252Z,1.67
2024-01-15T00:05:14.003Z,1.08
2024-01-15T00:07:41.630Z,1.73
2024-01-15T00:10:09.433Z,1.67
2024-01-15T00:12:37.051Z,1.88
2024-01-15T00:15:06.016Z,1.70
2024-01-15T00:17:35.141Z,0.60
2024-01-15T00:20:02.810Z,1.27
2024-01-15T00:22:30.478Z,1.33
2024-01-15T00:24:58.075Z,1.48
2024-01-15T00:27:25.900Z,1.58
2024-01-15T00:29:53.506Z,1.42
2024-01-15T00:32:21.202Z,1.25
2024-01-15T00:34:50.267Z,0.90
2024-01-15T00:37:18.659Z,0.82
2024-01-15T00:39:46.374Z,1.23
2024-01-15T00:42:14.063Z,1.50
2024-01-15T00:44:41.672Z,2.10
2024-01-15T00:47:09.276Z,1.20
2024-01-15T00:49:36.992Z,1.40
2024-01-15T00:52:06.523Z,1.40
2024-01-15T00:54:34.156Z,0.80
2024-01-15T00:57:01.797Z,1.45
2024-01-15T00:59:29.348Z,1.40
2024-01-15T01:01:56.925Z,1.40
2024-01-15T01:04:24.955Z,1.10
2024-01-15T01:06:52.631Z,1.73
2024-01-15T01:09:21.654Z,1.00
2024-01-15T01:11:49.719Z,1.70
2024-01-15T01:14:17.290Z,1.23
2024-01-15T01:16:44.858Z,1.83
2024-01-15T01:19:12.637Z,2.03
2024-01-15T01:21:40.326Z,1.65
2024-01-15T01:24:08.115Z,1.38
2024-01-15T01:26:37.101Z,1.00
2024-01-15T01:29:04.702Z,1.40
2024-01-15T01:31:32.352Z,1.35
2024-01-15T01:34:00.063Z,1.25
2024-01-15T01:36:27.838Z,1.50
2024-01-15T01:38:55.533Z,1.70
2024-01-15T01:41:25.279Z,0.80
2024-01-15T01:43:54.215Z,1.65
2024-01-15T01:46:21.916Z,2.08
2024-01-15T01:48:49.759Z,1.50
2024-01-15T01:51:17.761Z,1.00
2024-01-15T01:53:46.638Z,1.27
2024-01-15T01:56:14.909Z,2.17
2024-01-15T01:58:42.656Z,1.13
2024-01-15T02:01:11.807Z,1.63
2024-01-15T02:03:39.551Z,1.13
2024-01-15T02:06:07.511Z,1.83
2024-01-15T02:08:35.935Z,1.77
2024-01-15T02:11:03.505Z,1.20
2024-01-15T02:13:31.100Z,1.20
2024-01-15T02:15:58.790Z,1.13
2024-01-15T02:18:27.897Z,1.08
2024-01-15T02:20:55.525Z,2.05
2024-01-15T02:23:24.580Z,1.42
2024-01-15T02:25:52.143Z,1.20
2024-01-15T02:28:19.815Z,1.87
2024-01-15T02:30:47.511Z,1.48
2024-01-15T02:33:15.324Z,0.90
2024-01-15T02:35:43.397Z,1.08
2024-01-15T02:38:11.093Z,0.82
2024-01-15T02:40:40.338Z,1.50
2024-01-15T02:43:07.894Z,1.20
2024-01-15T02:45:35.536Z,0.75
2024-01-15T02:48:03.326Z,1.17
2024-01-15T02:50:31.008Z,1.35
2024-01-15T02:52:58.561Z,1.10
2024-01-15T02:55:26.129Z,0.90
2024-01-15T02:57:55.073Z,1.08
2024-01-15T03:00:22.837Z,1.13
2024-01-15T03:02:52.391Z,0.73
2024-01-15T03:05:20.093Z,0.97
2024-01-15T03:07:47.738Z,1.25
2024-01-15T03:10:15.348Z,1.10
2024-01-15T03:12:43.002Z,1.15
2024-01-15T03:15:12.143Z,0.95
2024-01-15T03:17:39.832Z,0.82
2024-01-15T03:20:08.558Z,1.00
2024-01-15T03:22:36.798Z,0.82
2024-01-15T03:25:04.795Z,1.25
2024-01-15T03:27:32.415Z,1.13
2024-01-15T03:29:59.981Z,1.23
2024-01-15T03:32:29.261Z,1.35
2024-01-15T03:34:57.278Z,0.90
2024-01-15T03:37:24.878Z,1.10
2024-01-15T03:39:53.764Z,0.85
2024-01-15T03:42:21.379Z,1.10
2024-01-15T03:44:48.978Z,0.80
2024-01-15T03:47:16.669Z,0.90
2024-01-15T03:49:45.816Z,1.02
2024-01-15T03:52:13.450Z,0.90
2024-01-15T03:54:41.108Z,1.00
2024-01-15T03:57:08.757Z,0.95
2024-01-15T03:59:36.349Z,1.10
2024-01-15T04:02:04.831Z,0.90
2024-01-15T04:04:32.443Z,1.35
2024-01-15T04:07:01.438Z,1.03
2024-01-15T04:09:29.071Z,1.15
2024-01-15T04:11:56.652Z,0.60
2024-01-15T04:14:24.204Z,0.93
2024-01-15T04:16:51.825Z,0.68
2024-01-15T04:19:19.441Z,0.87
2024-01-15T04:21:47.195Z,0.60
2024-01-15T04:24:19.056Z,0.55
2024-01-15T04:26:47.090Z,1.05
2024-01-15T04:29:14.708Z,0.47
2024-01-15T04:31:42.631Z,1.07
2024-01-15T04:34:10.302Z,0.55
2024-01-15T04:36:40.705Z,0.52
2024-01-15T04:39:07.324Z,0.77
2024-01-15T04:41:36.417Z,0.52
2024-01-15T04:44:04.150Z,0.63
2024-01-15T04:46:31.755Z,0.80
2024-01-15T04:48:59.402Z,0.65
2024-01-15T04:51:27.058Z,0.93
2024-01-15T04:53:54.712Z,0.40
2024-01-15T04:56:22.431Z,0.40
2024-01-15T04:58:51.345Z,0.60
2024-01-15T05:01:19.115Z,0.63
2024-01-15T05:03:47.074Z,0.65
2024-01-15T05:06:14.793Z,0.70
2024-01-15T05:08:42.514Z,0.40
2024-01-15T05:11:10.038Z,0.50
2024-01-15T05:13:37.670Z,0.63
2024-01-15T05:16:06.963Z,0.43
2024-01-15T05:18:34.645Z,0.60
2024-01-15T05:21:02.698Z,0.40
2024-01-15T05:23:30.328Z,0.98
2024-01-15T05:25:58.122Z,0.50
2024-01-15T05:28:25.679Z,1.05
2024-01-15T05:30:53.962Z,0.60
2024-01-15T05:33:23.539Z,0.50
2024-01-15T05:35:51.439Z,0.40
2024-01-15T05:38:19.099Z,0.50
2024-01-15T05:40:46.808Z,0.60
2024-01-15T05:43:14.414Z,0.40
2024-01-15T05:45:44.776Z,0.50
2024-01-15T05:48:12.626Z,0.47
2024-01-15T05:50:41.687Z,0.30
2024-01-15T05:53:09.282Z,0.60
2024-01-15T05:55:37.530Z,0.50
2024-01-15T05:58:05.305Z,0.50
2024-01-15T06:00:34.102Z,0.50
2024-01-15T06:03:01.762Z,0.70
2024-01-15T06:05:29.466Z,0.82
2024-01-15T06:07:58.520Z,0.40
2024-01-15T06:10:26.126Z,0.60
2024-01-15T06:12:53.773Z,0.70
2024-01-15T06:15:21.430Z,0.60
2024-01-15T06:17:49.059Z,0.63
2024-01-15T06:20:16.873Z,0.50
2024-01-15T06:22:44.416Z,0.70
2024-01-15T06:25:13.360Z,0.50
2024-01-15T06:27:41.047Z,0.65
2024-01-15T06:30:09.452Z,0.60
2024-01-15T06:32:37.223Z,0.70
2024-01-15T06:35:04.966Z,0.80
2024-01-15T06:37:33.719Z,0.50
2024-01-15T06:40:01.431Z,0.50
2024-01-15T06:42:30.559Z,0.60
2024-01-15T06:44:58.157Z,0.88
2024-01-15T06:47:25.771Z,1.00
2024-01-15T06:49:53.611Z,0.63
2024-01-15T06:52:21.275Z,0.68
2024-01-15T06:54:49.012Z,0.50
2024-01-15T06:57:16.757Z,0.77
2024-01-15T06:59:45.671Z,0.60
2024-01-15T07:02:13.286Z,0.63
2024-01-15T07:04:43.681Z,0.82
2024-01-15T07:07:11.567Z,0.85
2024-01-15T07:09:39.184Z,0.90
2024-01-15T07:12:06.961Z,0.63
2024-01-15T07:14:34.515Z,0.47
2024-01-15T07:17:03.498Z,0.60
2024-01-15T07:19:31.205Z,0.60
2024-01-15T07:21:58.986Z,0.60
2024-01-15T07:24:26.764Z,0.60
2024-01-15T07:26:54.520Z,0.60
2024-01-15T07:29:22.074Z,0.50
2024-01-15T07:31:50.521Z,0.70
2024-01-15T07:34:20.086Z,0.70
2024-01-15T07:36:47.872Z,0.53
2024-01-15T07:39:16.055Z,0.70
2024-01-15T07:41:43.720Z,0.70
2024-01-15T07:44:11.261Z,1.02
2024-01-15T07:46:38.949Z,0.50
2024-01-15T07:49:06.902Z,0.93
2024-01-15T07:51:35.999Z,0.60
2024-01-15T07:54:03.588Z,0.60
2024-01-15T07:56:31.248Z,0.70
2024-01-15T07:58:58.858Z,0.60
2024-01-15T08:01:26.559Z,0.80
2024-01-15T08:03:55.906Z,1.00
2024-01-15T08:06:23.683Z,0.90
2024-01-15T08:08:52.793Z,0.68
2024-01-15T08:11:20.510Z,0.80
2024-01-15T08:13:48.076Z,0.77
2024-01-15T08:16:15.908Z,0.73
2024-01-15T08:18:44.937Z,0.60
2024-01-15T08:21:12.720Z,0.80
2024-01-15T08:23:40.338Z,0.80
2024-01-15T08:26:10.103Z,0.80
2024-01-15T08:28:39.794Z,0.80
2024-01-15T08:31:07.671Z,0.80
2024-01-15T08:33:35.418Z,1.30
2024-01-15T08:36:06.912Z,0.77
2024-01-15T08:38:34.775Z,1.10
2024-01-15T08:41:02.371Z,1.10
2024-01-15T08:43:32.166Z,1.00
2024-01-15T08:46:00.502Z,1.20
2024-01-15T08:48:28.689Z,1.10
2024-01-15T08:51:00.356Z,1.15
2024-01-15T08:53:28.268Z,1.10
2024-01-15T08:55:55.949Z,1.20
2024-01-15T08:58:23.580Z,1.30
2024-01-15T09:00:53.878Z,1.55
2024-01-15T09:03:21.703Z,1.10
2024-01-15T09:05:51.472Z,1.10
2024-01-15T09:08:19.728Z,1.00
2024-01-15T09:10:47.883Z,0.98
2024-01-15T09:13:15.475Z,1.20
2024-01-15T09:15:43.851Z,1.20
2024-01-15T09:18:12.971Z,1.40
2024-01-15T09:20:40.683Z,1.25
2024-01-15T09:23:08.336Z,1.10
2024-01-15T09:25:38.643Z,1.00
2024-01-15T09:28:06.422Z,1.20
2024-01-15T09:30:34.205Z,1.00
2024-01-15T09:33:01.993Z,1.20
2024-01-15T09:35:31.032Z,1.10
2024-01-15T09:37:58.967Z,1.40
2024-01-15T09:40:32.187Z,1.40
2024-01-15T09:43:03.510Z,1.15
2024-01-15T09:45:33.506Z,1.27
2024-01-15T09:48:04.037Z,1.25
2024-01-15T09:50:35.173Z,1.30
2024-01-15T09:53:06.033Z,1.30
2024-01-15T09:55:36.736Z,1.20
2024-01-15T09:58:10.546Z,1.30
2024-01-15T10:00:42.922Z,1.23
2024-01-15T10:03:11.805Z,1.30
2024-01-15T10:05:44.133Z,1.50
2024-01-15T10:08:12.489Z,1.60
2024-01-15T10:10:40.125Z,1.47
2024-01-15T10:13:10.794Z,1.45
2024-01-15T10:15:51.136Z,1.50
2024-01-15T10:18:19.108Z,1.30
2024-01-15T10:20:53.336Z,0.95
2024-01-15T10:23:21.073Z,1.07
2024-01-15T10:25:48.757Z,1.13
2024-01-15T10:28:17.878Z,1.13
2024-01-15T10:30:45.647Z,1.30
2024-01-15T10:33:16.187Z,0.80
2024-01-15T10:35:45.033Z,0.83
2024-01-15T10:38:13.977Z,0.80
2024-01-15T10:40:43.364Z,1.00
2024-01-15T10:43:10.949Z,0.80
2024-01-15T10:45:39.707Z,0.70
2024-01-15T10:48:08.052Z,1.00
2024-01-15T10:50:37.562Z,1.10
2024-01-15T10:53:05.461Z,0.90
2024-01-15T10:55:35.694Z,1.08
2024-01-15T10:58:05.914Z,0.90
2024-01-15T11:00:33.834Z,1.00
2024-01-15T11:03:02.825Z,0.80
2024-01-15T11:05:30.423Z,0.90
2024-01-15T11:07:58.214Z,0.90
2024-01-15T11:10:46.056Z,0.85
2024-01-15T11:13:17.747Z,0.90
2024-01-15T11:15:58.164Z,0.90
2024-01-15T11:18:26.369Z,1.10
2024-01-15T11:21:12.870Z,0.90
2024-01-15T11:23:49.596Z,0.90
2024-01-15T11:26:33.558Z,0.90
2024-01-15T11:29:04.423Z,1.02
2024-01-15T11:31:32.578Z,1.10
2024-01-15T11:34:01.407Z,1.00
2024-01-15T11:36:47.641Z,0.90
2024-01-15T11:39:34.478Z,0.90
2024-01-15T11:42:02.578Z,0.93
2024-01-15T11:44:32.655Z,1.00
2024-01-15T11:47:01.569Z,1.20
2024-01-15T11:49:38.655Z,1.00
2024-01-15T11:52:07.326Z,1.20
2024-01-15T11:54:35.583Z,1.60
2024-01-15T11:57:06.464Z,1.80
2024-01-15T11:59:35.792Z,1.40
2024-01-15T12:02:05.560Z,1.73
2024-01-15T12:04:33.204Z,1.53
2024-01-15T12:07:00.868Z,1.55
2024-01-15T12:09:28.885Z,1.40
2024-01-15T12:12:01.962Z,1.70
2024-01-15T12:14:30.671Z,1.70
2024-01-15T12:17:01.297Z,1.80
2024-01-15T12:19:30.668Z,1.50
2024-01-15T12:21:58.586Z,1.40
2024-01-15T12:24:26.156Z,1.40
2024-01-15T12:26:53.884Z,1.52
2024-01-15T12:29:21.998Z,1.47
2024-01-15T12:31:50.676Z,1.17
2024-01-15T12:34:21.265Z,1.38
2024-01-15T12:36:49.199Z,1.40
2024-01-15T12:39:17.110Z,1.30
2024-01-15T12:41:44.759Z,1.30
2024-01-15T12:44:12.823Z,1.10
2024-01-15T12:46:40.905Z,1.23
2024-01-15T12:49:09.892Z,1.30
2024-01-15T12:51:39.943Z,1.40
2024-01-15T12:54:07.646Z,1.10
2024-01-15T12:56:35.244Z,1.30
2024-01-15T12:59:02.937Z,1.48
2024-01-15T13:01:30.716Z,1.52
2024-01-15T13:03:58.469Z,1.40
2024-01-15T13:06:26.158Z,1.33
2024-01-15T13:08:55.191Z,1.38
2024-01-15T13:11:23.056Z,1.50
2024-01-15T13:13:50.605Z,1.45
2024-01-15T13:16:18.234Z,1.30
2024-01-15T13:18:45.960Z,1.37
2024-01-15T13:21:13.893Z,1.08
2024-01-15T13:23:41.530Z,1.10
2024-01-15T13:26:10.566Z,0.98
2024-01-15T13:28:38.527Z,1.10
2024-01-15T13:31:06.666Z,0.80
2024-01-15T13:33:34.396Z,1.10
2024-01-15T13:36:02.113Z,1.10
2024-01-15T13:38:32.908Z,0.90
2024-01-15T13:41:00.470Z,0.70
2024-01-15T13:43:29.451Z,0.73
2024-01-15T13:45:57.067Z,0.70
2024-01-15T13:48:24.877Z,0.77
2024-01-15T13:50:52.865Z,0.90
2024-01-15T13:53:21.197Z,0.77
2024-01-15T13:55:48.865Z,0.73
2024-01-15T13:58:17.377Z,0.90
2024-01-15T14:00:46.459Z,1.25
2024-01-15T14:03:14.116Z,0.85
2024-01-15T14:05:41.879Z,1.08
2024-01-15T14:08:10.077Z,1.00
2024-01-15T14:10:38.439Z,1.02
2024-01-15T14:13:06.146Z,1.20
2024-01-15T14:15:33.720Z,1.00
2024-01-15T14:18:03.036Z,1.20
2024-01-15T14:20:30.718Z,0.75
2024-01-15T14:22:58.386Z,0.90
2024-01-15T14:25:26.157Z,0.95
2024-01-15T14:27:53.907Z,1.00
2024-01-15T14:30:21.575Z,1.23
2024-01-15T14:32:49.232Z,1.00
2024-01-15T14:35:18.247Z,0.70
2024-01-15T14:37:46.807Z,0.80
2024-01-15T14:40:17.823Z,0.80
2024-01-15T14:42:45.703Z,0.85
2024-01-15T14:45:13.996Z,0.77
2024-01-15T14:47:42.235Z,0.60
2024-01-15T14:50:11.238Z,0.50
2024-01-15T14:52:40.237Z,1.05
2024-01-15T14:55:10.089Z,1.50
2024-01-15T14:57:38.101Z,1.30
2024-01-15T15:00:08.185Z,1.40
2024-01-15T15:02:36.175Z,1.30
2024-01-15T15:05:04.140Z,1.10
2024-01-15T15:07:31.932Z,1.20
2024-01-15T15:10:01.876Z,1.05
2024-01-15T15:12:29.595Z,1.20
2024-01-15T15:15:04.204Z,2.38
2024-01-15T15:17:36.892Z,1.65
2024-01-15T15:20:05.101Z,1.33
2024-01-15T15:22:33.050Z,3.35
2024-01-15T15:25:02.509Z,3.85
2024-01-15T15:27:30.526Z,4.13
2024-01-15T15:29:58.149Z,3.65
2024-01-15T15:32:25.997Z,3.67
2024-01-15T15:34:53.765Z,4.95
2024-01-15T15:37:21.400Z,3.58
2024-01-15T15:39:49.093Z,3.88
2024-01-15T15:42:18.107Z,5.00
2024-01-15T15:44:47.657Z,5.23
2024-01-15T15:47:16.265Z,3.83
2024-01-15T15:49:44.026Z,4.05
2024-01-15T15:52:12.134Z,3.13
2024-01-15T15:54:39.772Z,2.28
2024-01-15T15:57:07.353Z,1.20
2024-01-15T15:59:36.302Z,1.05
2024-01-15T16:02:03.944Z,1.50
2024-01-15T16:04:31.729Z,1.10
2024-01-15T16:06:59.734Z,1.00
2024-01-15T16:09:27.427Z,0.80
2024-01-15T16:11:55.038Z,1.00
2024-01-15T16:14:22.678Z,0.90
2024-01-15T16:23:12.959Z,0.88
2024-01-15T16:23:26.507Z,0.90
2024-01-15T16:23:41.881Z,0.80
2024-01-15T16:25:16.593Z,0.70
2024-01-15T16:27:44.695Z,1.45
2024-01-15T16:30:21.012Z,1.20
2024-01-15T16:32:58.428Z,0.90
2024-01-15T16:35:26.153Z,1.13
2024-01-15T16:37:53.890Z,1.65
2024-01-15T16:40:22.193Z,1.25
2024-01-15T16:42:52.732Z,1.55
2024-01-15T16:45:20.322Z,1.60
2024-01-15T16:47:47.995Z,1.30
2024-01-15T16:50:17.186Z,1.05
2024-01-15T16:52:44.882Z,1.40
2024-01-15T16:55:12.648Z,1.35
2024-01-15T16:57:40.481Z,1.27
2024-01-15T17:00:09.024Z,1.20
2024-01-15T17:02:36.830Z,0.60
2024-01-15T17:05:04.805Z,0.60
2024-01-15T17:07:33.913Z,1.05
2024-01-15T17:10:01.562Z,0.77
2024-01-15T17:12:29.159Z,1.20
2024-01-15T17:14:56.701Z,1.55
2024-01-15T17:17:24.381Z,0.80
2024-01-15T17:19:51.976Z,1.40
2024-01-15T17:22:19.589Z,2.70
2024-01-15T17:24:48.607Z,1.43
2024-01-15T17:27:16.209Z,1.00
2024-01-15T17:29:43.819Z,0.98
2024-01-15T17:32:11.488Z,1.38
2024-01-15T17:34:39.170Z,0.90
2024-01-15T17:37:06.740Z,0.77
2024-01-15T17:39:34.358Z,0.95
2024-01-15T17:42:05.008Z,1.00
2024-01-15T17:44:32.712Z,0.95
2024-01-15T17:47:00.484Z,0.90
2024-01-15T17:49:28.470Z,1.13
2024-01-15T17:51:56.438Z,1.20
2024-01-15T17:54:24.078Z,1.13
2024-01-15T17:56:51.670Z,1.20
2024-01-15T17:59:20.799Z,0.75
2024-01-15T18:01:48.411Z,1.23
2024-01-15T18:04:17.387Z,0.50
2024-01-15T18:06:44.987Z,0.90
2024-01-15T18:09:13.169Z,1.02
2024-01-15T18:11:40.806Z,0.82
2024-01-15T18:14:08.445Z,0.70
2024-01-15T18:16:37.418Z,0.77
2024-01-15T18:19:05.146Z,0.73
2024-01-15T18:21:32.757Z,0.90
2024-01-15T18:24:00.393Z,1.13
2024-01-15T18:26:28.045Z,1.00
2024-01-15T18:28:56.177Z,0.77
2024-01-15T18:31:23.936Z,0.80
2024-01-15T18:33:53.031Z,0.90
2024-01-15T18:36:21.191Z,1.00
2024-01-15T18:38:48.846Z,1.00
2024-01-15T18:41:21.566Z,1.20
2024-01-15T18:43:49.198Z,1.15
2024-01-15T18:46:16.785Z,1.25
2024-01-15T18:48:45.346Z,1.30
2024-01-15T18:51:22.184Z,1.27
2024-01-15T18:53:50.343Z,1.55
2024-01-15T18:56:18.646Z,1.25
2024-01-15T18:58:46.277Z,1.98
2024-01-15T19:01:14.738Z,2.65
2024-01-15T19:03:42.605Z,3.40
2024-01-15T19:06:11.083Z,2.40
2024-01-15T19:08:40.075Z,2.08
2024-01-15T19:11:07.717Z,1.42
2024-01-15T19:13:35.278Z,1.20
2024-01-15T19:16:02.881Z,1.30
2024-01-15T19:18:30.529Z,0.88
2024-01-15T19:20:58.451Z,0.77
2024-01-15T19:23:26.124Z,1.10
2024-01-15T19:25:55.384Z,1.10
2024-01-15T19:28:22.970Z,0.93
2024-01-15T19:30:51.035Z,0.95
2024-01-15T19:33:18.918Z,1.00
2024-01-15T19:35:47.384Z,1.13
2024-01-15T19:38:14.949Z,0.90
2024-01-15T19:40:44.877Z,0.70
2024-01-15T19:43:14.044Z,0.70
2024-01-15T19:45:41.589Z,1.40
2024-01-15T19:48:09.888Z,1.00
2024-01-15T19:50:37.605Z,1.13
2024-01-15T19:53:05.378Z,1.10
2024-01-15T19:55:32.986Z,1.40
2024-01-15T19:58:00.599Z,2.50
2024-01-15T20:00:29.535Z,1.98
2024-01-15T20:02:57.401Z,2.50
2024-01-15T20:05:25.283Z,1.70
2024-01-15T20:07:53.178Z,1.75
2024-01-15T20:10:20.773Z,2.03
2024-01-15T20:12:49.078Z,1.38
2024-01-15T20:15:16.767Z,1.85
2024-01-15T20:17:46.003Z,1.90
2024-01-15T20:20:13.813Z,2.20
2024-01-15T20:22:41.563Z,1.98
2024-01-15T20:25:09.591Z,2.17
2024-01-15T20:27:37.276Z,1.98
2024-01-15T20:30:07.740Z,1.80
2024-01-15T20:32:36.013Z,1.90
2024-01-15T20:35:06.139Z,1.90
2024-01-15T20:37:33.785Z,1.63
2024-01-15T20:40:01.451Z,1.65
2024-01-15T20:42:29.012Z,2.00
2024-01-15T20:44:56.662Z,1.73
2024-01-15T20:47:24.266Z,1.98
2024-01-15T20:49:51.886Z,1.92
2024-01-15T20:52:23.173Z,1.60
2024-01-15T20:54:52.250Z,1.17
2024-01-15T20:57:19.820Z,2.05
2024-01-15T20:59:49.788Z,1.50
2024-01-15T21:02:19.168Z,1.35
2024-01-15T21:04:46.867Z,1.10
2024-01-15T21:07:14.734Z,1.20
2024-01-15T21:09:43.728Z,1.10
2024-01-15T21:12:11.720Z,1.15
2024-01-15T21:14:39.683Z,1.42
2024-01-15T21:17:06.510Z,1.25
2024-01-15T21:19:34.199Z,1.60
2024-01-15T21:22:01.822Z,1.30
2024-01-15T21:24:30.211Z,1.15
2024-01-15T21:26:59.357Z,1.10
2024-01-15T21:29:27.044Z,1.27
2024-01-15T21:31:55.150Z,1.00
2024-01-15T21:34:23.046Z,1.38
2024-01-15T21:36:51.099Z,1.73
2024-01-15T21:39:18.753Z,1.40
2024-01-15T21:41:46.619Z,1.13
2024-01-15T21:44:15.819Z,1.27
2024-01-15T21:46:43.397Z,1.40
2024-01-15T21:49:11.137Z,1.60
2024-01-15T21:51:38.717Z,1.40
2024-01-15T21:54:06.668Z,1.30
2024-01-15T21:56:34.262Z,1.73
2024-01-15T21:59:01.913Z,1.50
2024-01-15T22:01:30.872Z,1.17
2024-01-15T22:03:58.490Z,1.30
2024-01-15T22:06:26.120Z,1.35
2024-01-15T22:08:53.787Z,1.40
2024-01-15T22:11:21.418Z,1.50
2024-01-15T22:13:50.632Z,1.40
2024-01-15T22:16:18.231Z,1.38
2024-01-15T22:18:48.602Z,1.55
2024-01-15T22:21:16.303Z,1.20
2024-01-15T22:23:43.988Z,1.58
2024-01-15T22:26:11.637Z,1.40
2024-01-15T22:28:39.205Z,1.60
2024-01-15T22:31:06.774Z,1.73
2024-01-15T22:33:34.643Z,1.70
2024-01-15T22:36:03.702Z,1.10
2024-01-15T22:38:32.174Z,1.25
2024-01-15T22:40:59.811Z,1.13
2024-01-15T22:43:27.756Z,1.33
2024-01-15T22:45:55.816Z,1.70
2024-01-15T22:48:23.524Z,1.38
2024-01-15T22:50:52.154Z,1.40
2024-01-15T22:53:21.175Z,1.50
2024-01-15T22:55:48.748Z,1.70
2024-01-15T22:58:16.333Z,1.90
2024-01-15T23:00:44.941Z,1.05
2024-01-15T23:03:12.944Z,1.52
2024-01-15T23:05:41.018Z,1.60
2024-01-15T23:08:08.853Z,1.50
2024-01-15T23:10:37.852Z,1.50
2024-01-15T23:13:05.843Z,1.88
2024-01-15T23:15:33.408Z,1.80
2024-01-15T23:18:01.354Z,1.75
2024-01-15T23:20:29.195Z,1.92
2024-01-15T23:22:56.776Z,1.77
2024-01-15T23:25:24.975Z,1.75
2024-01-15T23:27:53.914Z,1.40
2024-01-15T23:30:21.652Z,1.45
2024-01-15T23:32:49.559Z,1.58
2024-01-15T23:35:17.298Z,1.27
2024-01-15T23:37:44.900Z,1.60
2024-01-15T23:40:13.445Z,1.45
2024-01-15T23:42:41.876Z,1.25
2024-01-15T23:45:11.110Z,1.00
2024-01-15T23:47:38.827Z,1.40
2024-01-15T23:50:06.720Z,1.20
2024-01-15T23:52:34.326Z,1.33
2024-01-15T23:55:01.894Z,1.65
2024-01-15T23:57:29.438Z,1.30
2024-01-15T23:59:56.992Z,1.83
